Wetterdaten: Woche 14.12.15 - 20.12.15 (KW51)
Datum Zeit Temperatur Luftfeuchte Luftdruck Niederschlag Windrichtung Sonnenschein Solar Wind
14.12.2015 00:00 -2,1 C 93 % 1023,6 hPa 0,0 l/m SW 0,00 h 0 W/m 3,2 km/h (1 Bft)
14.12.2015 01:00 -2,6 C 93 % 1023,5 hPa 0,0 l/m SW 0,00 h 0 W/m 1,3 km/h (1 Bft)
14.12.2015 02:00 -3,1 C 94 % 1023,5 hPa 0,0 l/m N 0,00 h 0 W/m 0,0 km/h (0 Bft)
14.12.2015 03:00 -3,4 C 94 % 1023,3 hPa 0,0 l/m N 0,00 h 0 W/m 0,0 km/h (0 Bft)
14.12.2015 04:00 -3,3 C 94 % 1023,1 hPa 0,0 l/m N 0,00 h 0 W/m 0,1 km/h (0 Bft)
14.12.2015 05:00 -3,3 C 95 % 1023,2 hPa 0,0 l/m N 0,00 h 0 W/m 0,0 km/h (0 Bft)
14.12.2015 06:00 -3,6 C 95 % 1023,4 hPa 0,0 l/m N 0,00 h 0 W/m 0,0 km/h (0 Bft)
14.12.2015 07:00 -3,3 C 95 % 1023,4 hPa 0,0 l/m N 0,00 h 0 W/m 0,0 km/h (0 Bft)
14.12.2015 08:00 -3,4 C 96 % 1023,7 hPa 0,0 l/m N 0,00 h 14 W/m 0,0 km/h (0 Bft)
14.12.2015 09:00 -3,2 C 96 % 1024,2 hPa 0,0 l/m N 0,00 h 53 W/m 0,0 km/h (0 Bft)
14.12.2015 10:00 -2,6 C 96 % 1024,3 hPa 0,0 l/m N 0,00 h 100 W/m 0,0 km/h (0 Bft)
14.12.2015 11:00 -1,7 C 97 % 1024,2 hPa 0,0 l/m N 0,42 h 178 W/m 0,0 km/h (0 Bft)
14.12.2015 12:00 0,2 C 98 % 1023,6 hPa 0,0 l/m SW 1,00 h 289 W/m 1,3 km/h (1 Bft)
14.12.2015 13:00 2,5 C 97 % 1023,2 hPa 0,0 l/m N 1,00 h 270 W/m 0,1 km/h (0 Bft)
14.12.2015 14:00 4,3 C 89 % 1023,1 hPa 0,0 l/m N 1,00 h 188 W/m 0,0 km/h (0 Bft)
14.12.2015 15:00 5,1 C 79 % 1023,3 hPa 0,0 l/m N 0,42 h 61 W/m 0,0 km/h (0 Bft)
14.12.2015 16:00 3,4 C 80 % 1023,8 hPa 0,0 l/m N 0,08 h 10 W/m 0,0 km/h (0 Bft)
14.12.2015 17:00 1,6 C 85 % 1024,0 hPa 0,0 l/m N 0,00 h 0 W/m 0,0 km/h (0 Bft)
14.12.2015 18:00 0,7 C 88 % 1024,0 hPa 0,0 l/m N 0,00 h 0 W/m 0,0 km/h (0 Bft)
14.12.2015 19:00 -0,3 C 89 % 1024,4 hPa 0,0 l/m N 0,00 h 0 W/m 0,0 km/h (0 Bft)
14.12.2015 20:00 -0,9 C 91 % 1024,8 hPa 0,0 l/m N 0,00 h 0 W/m 0,0 km/h (0 Bft)
14.12.2015 21:00 -1,4 C 91 % 1025,2 hPa 0,0 l/m N 0,00 h 0 W/m 0,0 km/h (0 Bft)
14.12.2015 22:00 -1,9 C 93 % 1025,4 hPa 0,0 l/m SW 0,00 h 0 W/m 0,4 km/h (0 Bft)
14.12.2015 23:00 -2,7 C 94 % 1025,5 hPa 0,0 l/m SW 0,00 h 0 W/m 3,9 km/h (1 Bft)
15.12.2015 00:00 -2,6 C 95 % 1025,9 hPa 0,0 l/m SW 0,00 h 0 W/m 6,9 km/h (2 Bft)
15.12.2015 01:00 -2,1 C 96 % 1025,9 hPa 0,0 l/m SW 0,00 h 0 W/m 7,1 km/h (2 Bft)
15.12.2015 02:00 -1,9 C 96 % 1026,1 hPa 0,0 l/m SW 0,00 h 0 W/m 8,6 km/h (2 Bft)
15.12.2015 03:00 -1,7 C 97 % 1026,2 hPa 0,0 l/m SW 0,00 h 0 W/m 7,9 km/h (2 Bft)
15.12.2015 04:00 -1,8 C 97 % 1026,1 hPa 0,0 l/m SW 0,00 h 0 W/m 5,7 km/h (1 Bft)
15.12.2015 05:00 -1,8 C 97 % 1025,9 hPa 0,0 l/m SW 0,00 h 0 W/m 8,0 km/h (2 Bft)
15.12.2015 06:00 -1,5 C 97 % 1026,0 hPa 0,0 l/m S-SW 0,00 h 0 W/m 3,2 km/h (1 Bft)
15.12.2015 07:00 -1,4 C 97 % 1026,5 hPa 0,0 l/m S-SW 0,00 h 0 W/m 1,5 km/h (1 Bft)
15.12.2015 08:00 -1,7 C 97 % 1026,9 hPa 0,0 l/m S-SW 0,00 h 14 W/m 1,9 km/h (1 Bft)
15.12.2015 09:00 -1,4 C 98 % 1027,4 hPa 0,0 l/m S-SW 0,08 h 69 W/m 6,8 km/h (2 Bft)
15.12.2015 10:00 -0,5 C 98 % 1027,7 hPa 0,0 l/m S-SW 0,00 h 63 W/m 11,0 km/h (2 Bft)
15.12.2015 11:00 0,1 C 98 % 1027,7 hPa 0,0 l/m S-SW 0,00 h 126 W/m 7,1 km/h (2 Bft)
15.12.2015 12:00 1,1 C 98 % 1027,4 hPa 0,0 l/m S-SW 0,00 h 73 W/m 5,6 km/h (1 Bft)
15.12.2015 13:00 1,6 C 99 % 1027,1 hPa 0,0 l/m S-SW 0,00 h 45 W/m 6,2 km/h (2 Bft)
15.12.2015 14:00 1,9 C 98 % 1026,7 hPa 0,0 l/m S-SW 0,00 h 42 W/m 4,7 km/h (1 Bft)
15.12.2015 15:00 2,2 C 98 % 1026,6 hPa 0,0 l/m S-SW 0,00 h 39 W/m 4,7 km/h (1 Bft)
15.12.2015 16:00 2,0 C 98 % 1027,0 hPa 0,0 l/m N 0,00 h 9 W/m 0,0 km/h (0 Bft)
15.12.2015 17:00 1,1 C 98 % 1027,7 hPa 0,0 l/m N 0,00 h 0 W/m 0,0 km/h (0 Bft)
15.12.2015 18:00 0,4 C 98 % 1027,9 hPa 0,0 l/m N 0,00 h 0 W/m 0,0 km/h (0 Bft)
15.12.2015 19:00 0,6 C 98 % 1028,1 hPa 0,0 l/m N 0,00 h 0 W/m 0,0 km/h (0 Bft)
15.12.2015 20:00 0,8 C 98 % 1028,1 hPa 0,0 l/m N 0,00 h 0 W/m 0,0 km/h (0 Bft)
15.12.2015 21:00 0,6 C 98 % 1028,0 hPa 0,0 l/m N 0,00 h 0 W/m 0,0 km/h (0 Bft)
15.12.2015 22:00 0,2 C 98 % 1027,9 hPa 0,0 l/m N 0,00 h 0 W/m 0,0 km/h (0 Bft)
15.12.2015 23:00 -0,1 C 98 % 1028,1 hPa 0,0 l/m N 0,00 h 0 W/m 0,0 km/h (0 Bft)
16.12.2015 00:00 -0,3 C 98 % 1028,4 hPa 0,0 l/m N 0,00 h 0 W/m 0,0 km/h (0 Bft)
16.12.2015 01:00 -0,4 C 98 % 1028,6 hPa 0,0 l/m N 0,00 h 0 W/m 0,0 km/h (0 Bft)
16.12.2015 02:00 -0,4 C 98 % 1029,0 hPa 0,0 l/m S-SW 0,00 h 0 W/m 0,9 km/h (0 Bft)
16.12.2015 03:00 0,5 C 98 % 1029,1 hPa 0,0 l/m S-SW 0,00 h 0 W/m 10,9 km/h (2 Bft)
16.12.2015 04:00 1,1 C 98 % 1029,2 hPa 0,0 l/m S-SW 0,00 h 0 W/m 6,8 km/h (2 Bft)
16.12.2015 05:00 1,3 C 98 % 1029,1 hPa 0,0 l/m S-SW 0,00 h 0 W/m 7,5 km/h (2 Bft)
16.12.2015 06:00 1,6 C 99 % 1029,3 hPa 0,8 l/m S-SW 0,00 h 0 W/m 4,9 km/h (1 Bft)
16.12.2015 07:00 2,0 C 99 % 1029,3 hPa 0,8 l/m S-SW 0,00 h 0 W/m 9,3 km/h (2 Bft)
16.12.2015 08:00 2,5 C 99 % 1029,5 hPa 0,8 l/m S 0,00 h 6 W/m 7,9 km/h (2 Bft)
16.12.2015 09:00 3,0 C 99 % 1029,6 hPa 0,6 l/m S 0,00 h 16 W/m 7,5 km/h (2 Bft)
16.12.2015 10:00 3,8 C 99 % 1029,7 hPa 0,0 l/m S-SW 0,00 h 32 W/m 7,8 km/h (2 Bft)
16.12.2015 11:00 5,4 C 100 % 1029,6 hPa 0,0 l/m SW 0,08 h 109 W/m 16,4 km/h (3 Bft)
16.12.2015 12:00 6,2 C 100 % 1029,1 hPa 0,0 l/m SW 0,00 h 92 W/m 12,6 km/h (3 Bft)
16.12.2015 13:00 6,4 C 100 % 1028,8 hPa 0,0 l/m SW 0,00 h 46 W/m 15,0 km/h (3 Bft)
16.12.2015 14:00 6,3 C 99 % 1028,7 hPa 0,2 l/m SW 0,00 h 25 W/m 7,9 km/h (2 Bft)
16.12.2015 15:00 6,4 C 99 % 1028,6 hPa 0,2 l/m SW 0,00 h 16 W/m 10,5 km/h (2 Bft)
16.12.2015 16:00 6,6 C 99 % 1028,6 hPa 0,6 l/m SW 0,00 h 5 W/m 14,4 km/h (3 Bft)
16.12.2015 17:00 6,8 C 99 % 1028,6 hPa 1,0 l/m SW 0,00 h 0 W/m 8,0 km/h (2 Bft)
16.12.2015 18:00 6,6 C 99 % 1028,8 hPa 0,2 l/m SW 0,00 h 0 W/m 6,8 km/h (2 Bft)
16.12.2015 19:00 6,6 C 99 % 1029,0 hPa 0,2 l/m SW 0,00 h 0 W/m 9,3 km/h (2 Bft)
16.12.2015 20:00 6,9 C 100 % 1029,2 hPa 0,6 l/m SW 0,00 h 0 W/m 7,3 km/h (2 Bft)
16.12.2015 21:00 7,0 C 100 % 1029,3 hPa 0,8 l/m SW 0,00 h 0 W/m 6,7 km/h (2 Bft)
16.12.2015 22:00 7,1 C 100 % 1029,2 hPa 0,4 l/m SW 0,00 h 0 W/m 10,7 km/h (2 Bft)
16.12.2015 23:00 7,2 C 100 % 1029,3 hPa 0,6 l/m W-SW 0,00 h 0 W/m 9,8 km/h (2 Bft)
17.12.2015 00:00 7,2 C 100 % 1029,1 hPa 0,0 l/m SW 0,00 h 0 W/m 10,2 km/h (2 Bft)
17.12.2015 01:00 7,5 C 100 % 1028,7 hPa 0,0 l/m SW 0,00 h 0 W/m 10,8 km/h (2 Bft)
17.12.2015 02:00 7,7 C 100 % 1028,8 hPa 0,0 l/m SW 0,00 h 0 W/m 8,4 km/h (2 Bft)
17.12.2015 03:00 7,8 C 100 % 1028,5 hPa 0,0 l/m SW 0,00 h 0 W/m 8,5 km/h (2 Bft)
17.12.2015 04:00 7,9 C 100 % 1028,6 hPa 0,0 l/m SW 0,00 h 0 W/m 5,9 km/h (2 Bft)
17.12.2015 05:00 7,8 C 100 % 1028,8 hPa 0,0 l/m SW 0,00 h 0 W/m 6,8 km/h (2 Bft)
17.12.2015 06:00 7,4 C 100 % 1028,6 hPa 0,0 l/m SW 0,00 h 0 W/m 10,3 km/h (2 Bft)
17.12.2015 07:00 7,7 C 100 % 1028,7 hPa 0,2 l/m SW 0,00 h 0 W/m 12,2 km/h (2 Bft)
17.12.2015 08:00 8,0 C 100 % 1028,6 hPa 0,0 l/m SW 0,00 h 8 W/m 13,3 km/h (3 Bft)
17.12.2015 09:00 8,4 C 99 % 1028,8 hPa 0,0 l/m SW 0,00 h 18 W/m 8,2 km/h (2 Bft)
17.12.2015 10:00 8,5 C 99 % 1028,6 hPa 0,0 l/m S-SW 0,00 h 37 W/m 7,2 km/h (2 Bft)
17.12.2015 11:00 8,8 C 98 % 1028,3 hPa 0,0 l/m S-SW 0,00 h 56 W/m 3,5 km/h (1 Bft)
17.12.2015 12:00 9,7 C 96 % 1027,6 hPa 0,0 l/m S-SW 0,50 h 206 W/m 7,2 km/h (2 Bft)
17.12.2015 13:00 11,3 C 92 % 1026,7 hPa 0,0 l/m S 1,00 h 274 W/m 5,3 km/h (1 Bft)
17.12.2015 14:00 11,8 C 90 % 1026,1 hPa 0,0 l/m S 0,92 h 176 W/m 6,9 km/h (2 Bft)
17.12.2015 15:00 11,2 C 92 % 1025,8 hPa 0,0 l/m S 0,58 h 68 W/m 1,3 km/h (1 Bft)
17.12.2015 16:00 8,5 C 96 % 1025,7 hPa 0,0 l/m N 0,08 h 9 W/m 0,1 km/h (0 Bft)
17.12.2015 17:00 6,8 C 98 % 1025,6 hPa 0,0 l/m N 0,00 h 0 W/m 0,3 km/h (0 Bft)
17.12.2015 18:00 5,6 C 99 % 1025,4 hPa 0,0 l/m S-SW 0,00 h 0 W/m 0,5 km/h (0 Bft)
17.12.2015 19:00 4,5 C 99 % 1025,2 hPa 0,0 l/m N 0,00 h 0 W/m 0,0 km/h (0 Bft)
17.12.2015 20:00 3,6 C 99 % 1025,1 hPa 0,0 l/m N 0,00 h 0 W/m 0,0 km/h (0 Bft)
17.12.2015 21:00 3,1 C 99 % 1025,0 hPa 0,0 l/m N 0,00 h 0 W/m 0,0 km/h (0 Bft)
17.12.2015 22:00 2,3 C 100 % 1024,7 hPa 0,0 l/m N 0,00 h 0 W/m 0,0 km/h (0 Bft)
17.12.2015 23:00 1,8 C 100 % 1024,7 hPa 0,0 l/m N 0,00 h 0 W/m 0,0 km/h (0 Bft)
18.12.2015 00:00 1,2 C 100 % 1024,7 hPa 0,0 l/m N 0,00 h 0 W/m 0,0 km/h (0 Bft)
18.12.2015 01:00 0,7 C 100 % 1024,5 hPa 0,0 l/m N 0,00 h 0 W/m 0,0 km/h (0 Bft)
18.12.2015 02:00 2,0 C 100 % 1024,5 hPa 0,0 l/m S-SW 0,00 h 0 W/m 1,6 km/h (1 Bft)
18.12.2015 03:00 3,2 C 100 % 1024,4 hPa 0,0 l/m S-SW 0,00 h 0 W/m 2,5 km/h (1 Bft)
18.12.2015 04:00 4,0 C 100 % 1024,1 hPa 0,0 l/m S 0,00 h 0 W/m 4,8 km/h (1 Bft)
18.12.2015 05:00 4,1 C 100 % 1024,3 hPa 0,0 l/m S-SO 0,00 h 0 W/m 5,7 km/h (1 Bft)
18.12.2015 06:00 4,3 C 100 % 1024,7 hPa 0,0 l/m S-SO 0,00 h 0 W/m 7,5 km/h (2 Bft)
18.12.2015 07:00 4,7 C 100 % 1025,2 hPa 0,4 l/m S 0,00 h 0 W/m 9,3 km/h (2 Bft)
18.12.2015 08:00 4,5 C 100 % 1025,6 hPa 0,0 l/m S-SO 0,00 h 12 W/m 13,0 km/h (3 Bft)
18.12.2015 09:00 5,1 C 100 % 1026,2 hPa 0,0 l/m S-SO 0,00 h 49 W/m 8,3 km/h (2 Bft)
18.12.2015 10:00 6,0 C 100 % 1026,7 hPa 0,0 l/m S-SO 0,00 h 65 W/m 4,1 km/h (1 Bft)
18.12.2015 11:00 6,7 C 100 % 1026,6 hPa 0,0 l/m S-SO 0,17 h 113 W/m 4,9 km/h (1 Bft)
18.12.2015 12:00 8,1 C 100 % 1026,3 hPa 0,0 l/m S-SO 0,50 h 214 W/m 4,8 km/h (1 Bft)
18.12.2015 13:00 9,0 C 98 % 1025,8 hPa 0,0 l/m S-SW 0,08 h 93 W/m 8,8 km/h (2 Bft)
18.12.2015 14:00 8,7 C 95 % 1025,5 hPa 0,0 l/m S-SW 0,00 h 52 W/m 11,2 km/h (2 Bft)
18.12.2015 15:00 8,0 C 95 % 1025,8 hPa 0,0 l/m S-SW 0,00 h 22 W/m 13,3 km/h (3 Bft)
18.12.2015 16:00 7,7 C 95 % 1026,2 hPa 0,0 l/m S-SW 0,00 h 6 W/m 1,1 km/h (0 Bft)
18.12.2015 17:00 7,2 C 96 % 1026,2 hPa 0,0 l/m N 0,00 h 0 W/m 0,0 km/h (0 Bft)
18.12.2015 18:00 6,9 C 97 % 1026,2 hPa 0,0 l/m N 0,00 h 0 W/m 0,0 km/h (0 Bft)
18.12.2015 19:00 6,2 C 97 % 1026,1 hPa 0,0 l/m N 0,00 h 0 W/m 0,0 km/h (0 Bft)
18.12.2015 20:00 5,6 C 98 % 1026,2 hPa 0,0 l/m N 0,00 h 0 W/m 0,0 km/h (0 Bft)
18.12.2015 21:00 5,2 C 99 % 1026,0 hPa 0,0 l/m N 0,00 h 0 W/m 0,0 km/h (0 Bft)
18.12.2015 22:00 4,7 C 99 % 1026,0 hPa 0,0 l/m N 0,00 h 0 W/m 0,0 km/h (0 Bft)
18.12.2015 23:00 4,8 C 99 % 1025,8 hPa 0,0 l/m N 0,00 h 0 W/m 0,0 km/h (0 Bft)
19.12.2015 00:00 4,7 C 99 % 1025,4 hPa 0,0 l/m N 0,00 h 0 W/m 0,0 km/h (0 Bft)
19.12.2015 01:00 4,3 C 99 % 1025,1 hPa 0,0 l/m N 0,00 h 0 W/m 0,0 km/h (0 Bft)
19.12.2015 02:00 4,4 C 99 % 1025,2 hPa 0,0 l/m N 0,00 h 0 W/m 0,0 km/h (0 Bft)
19.12.2015 03:00 4,6 C 100 % 1024,9 hPa 0,0 l/m N 0,00 h 0 W/m 0,0 km/h (0 Bft)
19.12.2015 04:00 4,0 C 99 % 1024,8 hPa 0,0 l/m S-SW 0,00 h 0 W/m 0,8 km/h (0 Bft)
19.12.2015 05:00 3,7 C 99 % 1024,8 hPa 0,0 l/m N 0,00 h 0 W/m 0,0 km/h (0 Bft)
19.12.2015 06:00 3,4 C 99 % 1024,9 hPa 0,0 l/m N 0,00 h 0 W/m 0,0 km/h (0 Bft)
19.12.2015 07:00 2,7 C 99 % 1025,1 hPa 0,0 l/m N 0,00 h 0 W/m 0,0 km/h (0 Bft)
19.12.2015 08:00 2,1 C 99 % 1025,2 hPa 0,0 l/m N 0,17 h 22 W/m 0,0 km/h (0 Bft)
19.12.2015 09:00 2,4 C 99 % 1025,5 hPa 0,0 l/m N 0,17 h 65 W/m 0,0 km/h (0 Bft)
19.12.2015 10:00 4,6 C 100 % 1025,3 hPa 0,0 l/m N 0,75 h 155 W/m 0,4 km/h (0 Bft)
19.12.2015 11:00 6,6 C 99 % 1025,0 hPa 0,0 l/m N 0,58 h 178 W/m 0,1 km/h (0 Bft)
19.12.2015 12:00 9,2 C 92 % 1024,7 hPa 0,0 l/m N 0,92 h 233 W/m 0,3 km/h (0 Bft)
19.12.2015 13:00 10,6 C 86 % 1024,1 hPa 0,0 l/m S-SW 1,00 h 223 W/m 0,3 km/h (0 Bft)
19.12.2015 14:00 11,2 C 82 % 1023,6 hPa 0,0 l/m S-SW 1,00 h 175 W/m 2,4 km/h (1 Bft)
19.12.2015 15:00 11,2 C 80 % 1023,4 hPa 0,0 l/m S-SW 0,33 h 62 W/m 1,1 km/h (0 Bft)
19.12.2015 16:00 9,4 C 85 % 1023,4 hPa 0,0 l/m N 0,08 h 11 W/m 0,0 km/h (0 Bft)
19.12.2015 17:00 6,9 C 90 % 1023,6 hPa 0,0 l/m N 0,00 h 0 W/m 0,0 km/h (0 Bft)
19.12.2015 18:00 5,7 C 93 % 1023,7 hPa 0,0 l/m N 0,00 h 0 W/m 0,0 km/h (0 Bft)
19.12.2015 19:00 5,1 C 93 % 1023,5 hPa 0,0 l/m N 0,00 h 0 W/m 0,0 km/h (0 Bft)
19.12.2015 20:00 4,2 C 93 % 1023,5 hPa 0,0 l/m N 0,00 h 0 W/m 0,0 km/h (0 Bft)
19.12.2015 21:00 3,3 C 94 % 1023,4 hPa 0,0 l/m N 0,00 h 0 W/m 0,0 km/h (0 Bft)
19.12.2015 22:00 2,6 C 94 % 1023,2 hPa 0,0 l/m N 0,00 h 0 W/m 0,0 km/h (0 Bft)
19.12.2015 23:00 1,7 C 95 % 1023,1 hPa 0,0 l/m N 0,00 h 0 W/m 0,0 km/h (0 Bft)
20.12.2015 00:00 0,8 C 95 % 1023,1 hPa 0,0 l/m N 0,00 h 0 W/m 0,0 km/h (0 Bft)
20.12.2015 01:00 0,3 C 96 % 1022,8 hPa 0,0 l/m N 0,00 h 0 W/m 0,0 km/h (0 Bft)
20.12.2015 02:00 0,0 C 96 % 1022,8 hPa 0,0 l/m N 0,00 h 0 W/m 0,4 km/h (0 Bft)
20.12.2015 03:00 -0,3 C 97 % 1022,6 hPa 0,0 l/m N 0,00 h 0 W/m 0,0 km/h (0 Bft)
20.12.2015 04:00 -0,5 C 97 % 1022,6 hPa 0,0 l/m N 0,00 h 0 W/m 0,0 km/h (0 Bft)
20.12.2015 05:00 -0,8 C 97 % 1022,6 hPa 0,0 l/m N 0,00 h 0 W/m 0,0 km/h (0 Bft)
20.12.2015 06:00 -1,2 C 97 % 1023,1 hPa 0,0 l/m N 0,00 h 0 W/m 0,1 km/h (0 Bft)
20.12.2015 07:00 -1,6 C 97 % 1023,5 hPa 0,0 l/m S-SW 0,00 h 0 W/m 0,7 km/h (0 Bft)
20.12.2015 08:00 -1,1 C 98 % 1023,8 hPa 0,0 l/m S-SW 0,00 h 11 W/m 7,2 km/h (2 Bft)
20.12.2015 09:00 -0,2 C 99 % 1024,2 hPa 0,0 l/m S-SW 0,00 h 37 W/m 6,3 km/h (2 Bft)
20.12.2015 10:00 0,6 C 99 % 1024,6 hPa 0,2 l/m S-SW 0,00 h 90 W/m 7,8 km/h (2 Bft)
20.12.2015 11:00 1,8 C 99 % 1024,2 hPa 0,0 l/m S-SW 0,00 h 112 W/m 6,7 km/h (2 Bft)
20.12.2015 12:00 3,1 C 100 % 1023,7 hPa 0,0 l/m S-SW 0,00 h 127 W/m 3,1 km/h (1 Bft)
20.12.2015 13:00 4,9 C 100 % 1023,1 hPa 0,0 l/m S-SW 0,75 h 243 W/m 9,0 km/h (2 Bft)
20.12.2015 14:00 6,5 C 96 % 1022,9 hPa 0,0 l/m S-SW 1,00 h 186 W/m 11,2 km/h (2 Bft)
20.12.2015 15:00 6,5 C 93 % 1022,8 hPa 0,0 l/m S-SW 0,42 h 65 W/m 13,4 km/h (3 Bft)
20.12.2015 16:00 5,6 C 93 % 1023,2 hPa 0,0 l/m S 0,00 h 9 W/m 8,2 km/h (2 Bft)
20.12.2015 17:00 4,3 C 93 % 1023,8 hPa 0,0 l/m N 0,00 h 0 W/m 0,1 km/h (0 Bft)
20.12.2015 18:00 3,0 C 94 % 1024,2 hPa 0,0 l/m N 0,00 h 0 W/m 0,0 km/h (0 Bft)
20.12.2015 19:00 2,4 C 95 % 1024,3 hPa 0,0 l/m N 0,00 h 0 W/m 0,0 km/h (0 Bft)
20.12.2015 20:00 1,6 C 96 % 1024,6 hPa 0,0 l/m N 0,00 h 0 W/m 0,0 km/h (0 Bft)
20.12.2015 21:00 1,2 C 96 % 1025,0 hPa 0,0 l/m N 0,00 h 0 W/m 0,0 km/h (0 Bft)
20.12.2015 22:00 0,8 C 96 % 1025,2 hPa 0,0 l/m N 0,00 h 0 W/m 0,0 km/h (0 Bft)
20.12.2015 23:00 0,5 C 97 % 1025,6 hPa 0,0 l/m N 0,00 h 0 W/m 0,0 km/h (0 Bft)
Min-Datum _ 14.12.15 14.12.15 20.12.15 - - - - 14.12.15
_ Min-Zeit 06:05 15:30 03:50 - - - - 00:00
Minimum _ -3,6 C 78 % 1022,3 hPa - - - - 0,0 km/h (0 Bft)
Max-Datum _ 17.12.15 15.12.15 16.12.15 16.12.15 - 14.12.15 17.12.15 16.12.15
_ Max-Zeit 14:10 09:45 10:25 17:00 - 11:30 12:40 11:25
Maximum _ 12,0 C 100 % 1029,9 hPa 1,0 l/m - 0,08 h 346 W/m 24,1 km/h
SW (4 Bft)
Durchschnitt _ 3,2 C 97 % 1025,8 hPa #8,6 l/m S-SW #15:05 h 87 W/m 3,7 km/h (1 Bft)